createdAt,value
2023-05-06T00:01:44.352Z,37.88
2023-05-06T00:04:12.207Z,39.15
2023-05-06T00:06:39.594Z,41.20
2023-05-06T00:09:07.032Z,36.05
2023-05-06T00:11:34.893Z,33.17
2023-05-06T00:14:02.172Z,36.05
2023-05-06T00:16:29.944Z,42.60
2023-05-06T00:18:57.259Z,42.20
2023-05-06T00:21:24.561Z,42.33
2023-05-06T00:23:52.346Z,37.05
2023-05-06T00:26:19.673Z,37.05
2023-05-06T00:28:47.419Z,31.75
2023-05-06T00:31:14.944Z,33.83
2023-05-06T00:33:42.510Z,33.58
2023-05-06T00:36:10.348Z,35.42
2023-05-06T00:38:37.701Z,34.70
2023-05-06T00:41:05.346Z,34.70
2023-05-06T00:43:32.610Z,38.08
2023-05-06T00:46:00.137Z,41.78
2023-05-06T00:48:28.215Z,35.80
2023-05-06T00:50:55.894Z,35.55
2023-05-06T00:53:24.313Z,35.17
2023-05-06T00:55:52.551Z,42.13
2023-05-06T00:58:20.546Z,35.15
2023-05-06T01:00:48.502Z,39.28
2023-05-06T01:03:17.219Z,40.05
2023-05-06T01:05:57.325Z,43.03
2023-05-06T01:08:41.933Z,40.15
2023-05-06T01:11:39.783Z,43.83
2023-05-06T01:14:15.909Z,44.20
2023-05-06T01:16:44.417Z,43.47
2023-05-06T01:19:27.738Z,42.97
2023-05-06T01:21:58.089Z,42.33
2023-05-06T01:24:40.870Z,47.00
2023-05-06T01:27:09.712Z,40.97
2023-05-06T01:29:39.685Z,39.90
2023-05-06T01:32:19.119Z,37.13
2023-05-06T01:35:01.126Z,49.67
2023-05-06T01:37:42.154Z,41.72
2023-05-06T01:40:10.069Z,41.55
2023-05-06T01:42:40.372Z,43.92
2023-05-06T01:45:10.036Z,45.20
2023-05-06T01:47:38.021Z,47.90
2023-05-06T01:50:07.130Z,52.83
2023-05-06T01:52:34.515Z,49.42
2023-05-06T01:55:02.560Z,45.88
2023-05-06T01:57:29.878Z,44.13
2023-05-06T01:59:57.312Z,38.00
2023-05-06T02:02:24.776Z,35.88
2023-05-06T02:04:53.496Z,34.45
2023-05-06T02:07:21.126Z,34.75
2023-05-06T02:09:48.441Z,36.20
2023-05-06T02:12:16.188Z,40.15
2023-05-06T02:14:43.952Z,40.90
2023-05-06T02:17:12.158Z,44.30
2023-05-06T02:19:39.476Z,54.25
2023-05-06T02:22:07.246Z,51.55
2023-05-06T02:24:34.713Z,52.13
2023-05-06T02:27:02.333Z,50.38
2023-05-06T02:29:30.230Z,51.90
2023-05-06T02:31:57.747Z,52.95
2023-05-06T02:34:25.227Z,55.22
2023-05-06T02:36:52.567Z,54.15
2023-05-06T02:39:20.308Z,54.10
2023-05-06T02:41:47.799Z,48.65
2023-05-06T02:44:15.215Z,50.90
2023-05-06T02:47:00.850Z,54.38
2023-05-06T02:49:47.034Z,55.38
2023-05-06T02:52:14.805Z,56.47
2023-05-06T02:54:42.757Z,50.00
2023-05-06T02:57:10.158Z,56.28
2023-05-06T02:59:37.601Z,57.42
2023-05-06T03:02:05.166Z,57.58
2023-05-06T03:04:32.731Z,59.25
2023-05-06T03:07:00.567Z,60.70
2023-05-06T03:09:27.919Z,62.92
2023-05-06T03:11:56.754Z,57.70
2023-05-06T03:14:24.243Z,55.03
2023-05-06T03:16:52.151Z,56.40
2023-05-06T03:19:19.887Z,62.58
2023-05-06T03:21:48.067Z,67.07
2023-05-06T03:24:17.727Z,64.35
2023-05-06T03:26:45.543Z,65.32
2023-05-06T03:29:14.261Z,60.70
2023-05-06T03:31:43.704Z,56.05
2023-05-06T03:34:11.959Z,58.50
2023-05-06T03:36:39.212Z,56.78
2023-05-06T03:39:06.630Z,50.67
2023-05-06T03:41:36.663Z,56.97
2023-05-06T03:44:04.919Z,68.35
2023-05-06T03:46:32.796Z,62.25
2023-05-06T03:49:02.721Z,54.78
2023-05-06T03:51:30.774Z,63.75
2023-05-06T03:53:58.224Z,51.05
2023-05-06T03:56:26.311Z,54.15
2023-05-06T03:58:55.862Z,55.90
2023-05-06T04:01:25.917Z,60.80
2023-05-06T04:03:54.523Z,59.20
2023-05-06T04:06:23.263Z,60.95
2023-05-06T04:08:51.035Z,59.25
2023-05-06T04:11:19.548Z,54.00
2023-05-06T04:13:48.188Z,60.63
2023-05-06T04:16:19.454Z,54.60
2023-05-06T04:18:47.961Z,51.05
2023-05-06T04:21:18.286Z,54.35
2023-05-06T04:23:52.258Z,51.80
2023-05-06T04:26:24.086Z,57.70
2023-05-06T04:28:51.618Z,51.17
2023-05-06T04:31:19.613Z,50.38
2023-05-06T04:33:50.296Z,49.50
2023-05-06T04:36:22.188Z,49.50
2023-05-06T04:39:10.498Z,52.97
2023-05-06T04:41:38.748Z,53.00
2023-05-06T04:44:06.709Z,51.45
2023-05-06T04:46:35.012Z,54.17
2023-05-06T04:49:04.071Z,51.80
2023-05-06T04:51:32.036Z,51.17
2023-05-06T04:54:00.877Z,50.05
2023-05-06T04:56:28.657Z,51.45
2023-05-06T04:58:56.270Z,53.08
2023-05-06T05:01:23.697Z,50.35
2023-05-06T05:03:51.477Z,53.53
2023-05-06T05:06:21.146Z,60.63
2023-05-06T05:08:49.231Z,59.58
2023-05-06T05:11:16.993Z,59.65
2023-05-06T05:13:44.612Z,49.85
2023-05-06T05:16:12.043Z,62.40
2023-05-06T05:18:43.795Z,58.42
2023-05-06T05:21:18.493Z,57.05
2023-05-06T05:23:46.471Z,54.35
2023-05-06T05:26:14.857Z,76.97
2023-05-06T05:28:44.242Z,52.30
2023-05-06T05:31:13.125Z,59.92
2023-05-06T05:33:40.691Z,66.90
2023-05-06T05:36:15.210Z,65.00
2023-05-06T05:38:43.946Z,58.05
2023-05-06T05:41:11.827Z,59.55
2023-05-06T05:43:39.765Z,48.08
2023-05-06T05:46:07.853Z,56.47
2023-05-06T05:48:37.888Z,58.80
2023-05-06T05:51:06.194Z,61.80
2023-05-06T05:53:33.773Z,60.92
2023-05-06T05:56:01.136Z,62.85
2023-05-06T05:58:29.761Z,55.55
2023-05-06T06:01:00.013Z,54.78
2023-05-06T06:03:27.941Z,52.60
2023-05-06T06:05:55.959Z,49.03
2023-05-06T06:08:26.460Z,53.85
2023-05-06T06:10:54.281Z,51.25
2023-05-06T06:13:28.780Z,54.72
2023-05-06T06:15:57.641Z,56.63
2023-05-06T06:18:24.980Z,46.08
2023-05-06T06:20:53.625Z,47.00
2023-05-06T06:23:22.407Z,45.95
2023-05-06T06:25:50.698Z,45.92
2023-05-06T06:28:18.117Z,44.38
2023-05-06T06:30:46.194Z,48.65
2023-05-06T06:33:13.525Z,39.83
2023-05-06T06:35:41.420Z,42.80
2023-05-06T06:38:08.850Z,39.80
2023-05-06T06:40:36.561Z,38.60
2023-05-06T06:43:03.950Z,41.33
2023-05-06T06:45:56.414Z,39.30
2023-05-06T06:48:24.237Z,37.47
2023-05-06T06:50:52.027Z,35.55
2023-05-06T06:53:20.868Z,41.33
2023-05-06T06:55:48.387Z,36.67
2023-05-06T06:58:16.113Z,41.72
2023-05-06T07:00:44.663Z,39.33
2023-05-06T07:03:15.718Z,40.25
2023-05-06T07:05:42.969Z,45.90
2023-05-06T07:08:10.760Z,35.35
2023-05-06T07:10:38.235Z,29.90
2023-05-06T07:13:06.092Z,39.15
2023-05-06T07:15:33.878Z,39.40
2023-05-06T07:18:01.310Z,39.10
2023-05-06T07:20:28.630Z,38.63
2023-05-06T07:22:56.415Z,33.15
2023-05-06T07:25:24.184Z,36.47
2023-05-06T07:27:51.883Z,29.38
2023-05-06T07:30:22.891Z,25.08
2023-05-06T07:32:51.270Z,34.80
2023-05-06T07:35:19.572Z,26.60
2023-05-06T07:37:47.524Z,30.52
2023-05-06T07:40:14.886Z,25.48
2023-05-06T07:42:43.405Z,32.10
2023-05-06T07:45:12.389Z,30.17
2023-05-06T07:47:40.559Z,27.75
2023-05-06T07:50:08.763Z,25.00
2023-05-06T07:52:36.820Z,29.75
2023-05-06T07:55:05.025Z,33.38
2023-05-06T07:57:32.858Z,25.83
2023-05-06T08:00:00.801Z,38.65
2023-05-06T08:02:28.290Z,25.58
2023-05-06T08:04:56.107Z,30.77
2023-05-06T08:07:23.482Z,28.33
2023-05-06T08:09:51.253Z,27.58
2023-05-06T08:12:18.568Z,28.13
2023-05-06T08:14:46.654Z,33.72
2023-05-06T08:17:14.197Z,30.73
2023-05-06T08:19:42.031Z,26.08
2023-05-06T08:22:10.912Z,28.73
2023-05-06T08:24:38.345Z,27.55
2023-05-06T08:27:06.015Z,28.05
2023-05-06T08:29:33.439Z,24.60
2023-05-06T08:32:01.578Z,30.58
2023-05-06T08:34:29.147Z,33.40
2023-05-06T08:36:56.805Z,26.85
2023-05-06T08:39:24.134Z,31.17
2023-05-06T08:41:54.539Z,32.92
2023-05-06T08:44:24.748Z,29.65
2023-05-06T08:46:52.363Z,30.23
2023-05-06T08:49:20.049Z,33.92
2023-05-06T08:51:50.050Z,26.88
2023-05-06T08:54:18.852Z,29.48
2023-05-06T08:56:52.589Z,30.60
2023-05-06T08:59:30.928Z,28.13
2023-05-06T09:02:03.449Z,28.42
2023-05-06T09:04:31.377Z,21.80
2023-05-06T09:06:59.108Z,30.58
2023-05-06T09:09:26.871Z,23.40
2023-05-06T09:11:57.162Z,27.52
2023-05-06T09:14:24.981Z,30.55
2023-05-06T09:16:53.119Z,22.23
2023-05-06T09:19:22.319Z,30.42
2023-05-06T09:21:51.515Z,29.33
2023-05-06T09:24:20.199Z,29.38
2023-05-06T09:26:48.120Z,21.85
2023-05-06T09:29:16.195Z,16.95
2023-05-06T09:31:45.674Z,29.73
2023-05-06T09:34:15.554Z,31.73
2023-05-06T09:36:42.931Z,29.27
2023-05-06T09:39:10.871Z,31.25
2023-05-06T09:41:38.392Z,19.30
2023-05-06T09:44:06.268Z,36.35
2023-05-06T09:46:33.922Z,22.52
2023-05-06T09:49:01.656Z,20.95
2023-05-06T09:51:31.236Z,29.30
2023-05-06T09:54:00.796Z,26.40
2023-05-06T09:56:30.753Z,25.30
2023-05-06T09:58:58.509Z,34.65
2023-05-06T10:01:36.017Z,25.20
2023-05-06T10:04:09.964Z,20.20
2023-05-06T10:06:40.470Z,32.35
2023-05-06T10:09:09.129Z,28.35
2023-05-06T10:11:37.230Z,20.33
2023-05-06T10:14:06.615Z,26.92
2023-05-06T10:16:36.543Z,19.50
2023-05-06T10:19:07.413Z,23.77
2023-05-06T10:21:39.426Z,25.52
2023-05-06T10:24:11.540Z,29.42
2023-05-06T10:26:40.924Z,32.13
2023-05-06T10:29:11.717Z,22.90
2023-05-06T10:31:47.251Z,24.55
2023-05-06T10:34:16.350Z,35.80
2023-05-06T10:36:46.121Z,23.63
2023-05-06T10:39:14.874Z,28.55
2023-05-06T10:41:42.510Z,22.35
2023-05-06T10:44:10.143Z,22.55
2023-05-06T10:47:01.374Z,23.15
2023-05-06T10:49:29.239Z,17.73
2023-05-06T10:52:11.842Z,32.80
2023-05-06T10:54:52.466Z,24.05
2023-05-06T10:57:26.659Z,25.60
2023-05-06T10:59:55.520Z,26.70
2023-05-06T11:02:25.081Z,28.85
2023-05-06T11:05:01.863Z,29.73
2023-05-06T11:07:29.370Z,27.33
2023-05-06T11:10:02.028Z,29.48
2023-05-06T11:13:24.109Z,37.65
2023-05-06T11:15:52.542Z,33.25
2023-05-06T11:18:26.473Z,24.25
2023-05-06T11:21:01.404Z,24.23
2023-05-06T11:23:52.257Z,27.90
2023-05-06T11:26:21.352Z,34.38
2023-05-06T11:28:51.071Z,26.45
2023-05-06T11:31:19.416Z,29.40
2023-05-06T11:33:49.253Z,25.95
2023-05-06T11:36:19.277Z,27.73
2023-05-06T11:38:49.722Z,27.88
2023-05-06T11:41:18.219Z,25.40
2023-05-06T11:43:46.734Z,16.63
2023-05-06T11:46:15.136Z,26.13
2023-05-06T11:48:47.421Z,24.08
2023-05-06T11:51:16.414Z,23.05
2023-05-06T11:53:48.415Z,16.70
2023-05-06T11:56:16.172Z,28.23
2023-05-06T11:58:44.651Z,18.85
2023-05-06T12:01:13.685Z,25.30
2023-05-06T12:03:42.575Z,28.27
2023-05-06T12:06:10.014Z,20.27
2023-05-06T12:08:38.967Z,26.05
2023-05-06T12:11:08.488Z,22.63
2023-05-06T12:13:38.294Z,22.27
2023-05-06T12:16:08.604Z,26.65
2023-05-06T12:18:36.211Z,27.23
2023-05-06T12:21:04.414Z,30.58
2023-05-06T12:23:32.478Z,23.83
2023-05-06T12:26:06.153Z,23.88
2023-05-06T12:28:36.869Z,24.88
2023-05-06T12:31:21.095Z,19.15
2023-05-06T12:33:50.535Z,19.77
2023-05-06T12:36:19.417Z,19.88
2023-05-06T12:38:54.963Z,20.02
2023-05-06T12:41:24.751Z,16.80
2023-05-06T12:43:53.719Z,16.95
2023-05-06T12:46:21.956Z,23.05
2023-05-06T12:49:03.168Z,17.95
2023-05-06T12:53:58.734Z,19.25
2023-05-06T12:56:26.947Z,14.52
2023-05-06T12:58:59.244Z,13.82
2023-05-06T13:01:27.118Z,12.82
2023-05-06T13:03:58.669Z,13.95
2023-05-06T13:06:26.886Z,10.48
2023-05-06T13:08:54.246Z,9.90
2023-05-06T13:11:22.138Z,11.07
2023-05-06T13:13:49.953Z,9.55
2023-05-06T13:16:18.273Z,17.23
2023-05-06T13:18:45.963Z,16.73
2023-05-06T13:21:14.132Z,12.40
2023-05-06T13:23:46.976Z,10.05
2023-05-06T13:26:15.687Z,8.93
2023-05-06T13:28:44.074Z,11.77
2023-05-06T13:31:11.416Z,11.35
2023-05-06T13:33:38.933Z,9.48
2023-05-06T13:36:07.126Z,11.52
2023-05-06T13:38:34.856Z,15.75
2023-05-06T13:41:02.683Z,19.30
2023-05-06T13:43:30.105Z,15.57
2023-05-06T13:45:57.860Z,13.85
2023-05-06T13:48:25.853Z,11.93
2023-05-06T13:50:53.677Z,16.38
2023-05-06T13:53:21.588Z,12.05
2023-05-06T13:55:49.060Z,15.50
2023-05-06T13:58:17.245Z,15.27
2023-05-06T14:00:44.697Z,16.02
2023-05-06T14:03:12.599Z,9.52
2023-05-06T14:05:40.058Z,12.25
2023-05-06T14:08:08.315Z,13.23
2023-05-06T14:10:35.656Z,13.55
2023-05-06T14:13:06.188Z,11.07
2023-05-06T14:15:34.524Z,8.60
2023-05-06T14:18:02.392Z,10.90
2023-05-06T14:20:29.895Z,12.05
2023-05-06T14:22:57.641Z,9.93
2023-05-06T14:25:27.847Z,10.88
2023-05-06T14:27:55.875Z,18.75
2023-05-06T14:30:24.605Z,9.75
2023-05-06T14:32:52.252Z,13.57
2023-05-06T14:35:19.934Z,10.90
2023-05-06T14:37:47.265Z,9.45
2023-05-06T14:40:15.605Z,19.27
2023-05-06T14:42:43.898Z,8.23
2023-05-06T14:45:11.995Z,12.60
2023-05-06T14:47:40.988Z,16.55
2023-05-06T14:50:09.785Z,12.63
2023-05-06T14:52:38.615Z,12.43
2023-05-06T14:55:07.746Z,14.23
2023-05-06T14:57:35.781Z,9.13
2023-05-06T15:00:09.886Z,8.18
2023-05-06T15:02:40.810Z,19.00
2023-05-06T15:05:10.095Z,9.52
2023-05-06T15:07:38.235Z,13.05
2023-05-06T15:10:06.651Z,6.63
2023-05-06T15:12:37.207Z,10.27
2023-05-06T15:15:05.892Z,12.07
2023-05-06T15:17:34.717Z,10.30
2023-05-06T15:20:02.634Z,15.27
2023-05-06T15:22:29.966Z,6.78
2023-05-06T15:24:57.196Z,8.32
2023-05-06T15:27:24.602Z,11.75
2023-05-06T15:29:51.992Z,6.43
2023-05-06T15:32:19.796Z,6.25
2023-05-06T15:34:47.032Z,7.50
2023-05-06T15:37:19.139Z,19.35
2023-05-06T15:39:47.894Z,6.80
2023-05-06T15:42:17.226Z,8.20
2023-05-06T15:44:44.644Z,5.32
2023-05-06T15:47:11.978Z,5.10
2023-05-06T15:52:10.119Z,9.90
2023-05-06T15:54:37.973Z,9.55
2023-05-06T15:57:07.006Z,6.78
2023-05-06T15:59:35.198Z,6.53
2023-05-06T16:04:34.104Z,5.45
2023-05-06T16:07:02.932Z,8.63
2023-05-06T16:09:30.296Z,12.95
2023-05-06T16:11:57.577Z,6.07
2023-05-06T16:14:24.819Z,16.17
2023-05-06T16:16:52.579Z,7.93
2023-05-06T16:19:20.476Z,7.22
2023-05-06T16:21:48.365Z,10.05
2023-05-06T16:24:16.146Z,11.20
2023-05-06T16:26:43.548Z,9.85
2023-05-06T16:29:11.690Z,15.05
2023-05-06T16:31:39.022Z,16.70
2023-05-06T16:34:06.709Z,7.05
2023-05-06T16:36:34.427Z,7.40
2023-05-06T16:39:01.837Z,10.75
2023-05-06T16:41:29.149Z,13.05
2023-05-06T16:43:57.559Z,10.48
2023-05-06T16:46:26.327Z,8.57
2023-05-06T16:48:54.093Z,6.35
2023-05-06T16:51:22.365Z,10.38
2023-05-06T16:53:50.960Z,7.47
2023-05-06T16:56:18.293Z,12.45
2023-05-06T16:58:45.847Z,8.10
2023-05-06T17:01:13.608Z,9.75
2023-05-06T17:03:41.148Z,11.25
2023-05-06T17:06:09.315Z,21.00
2023-05-06T17:08:37.569Z,12.75
2023-05-06T17:11:06.771Z,10.05
2023-05-06T17:13:35.015Z,10.30
2023-05-06T17:16:02.961Z,11.07
2023-05-06T17:18:30.938Z,13.30
2023-05-06T17:20:58.795Z,17.52
2023-05-06T17:23:26.294Z,10.90
2023-05-06T17:25:56.385Z,17.75
2023-05-06T17:28:24.919Z,23.52
2023-05-06T17:30:52.714Z,14.73
2023-05-06T17:33:20.823Z,18.02
2023-05-06T17:35:48.594Z,12.98
2023-05-06T17:38:16.961Z,15.38
2023-05-06T17:40:44.250Z,12.70
2023-05-06T17:43:12.342Z,9.60
2023-05-06T17:45:40.745Z,13.13
2023-05-06T17:48:08.036Z,13.18
2023-05-06T17:50:35.974Z,9.68
2023-05-06T17:53:03.377Z,10.40
2023-05-06T17:55:31.103Z,13.32
2023-05-06T17:57:58.536Z,10.95
2023-05-06T18:00:26.901Z,10.00
2023-05-06T18:02:55.230Z,10.52
2023-05-06T18:05:24.683Z,8.27
2023-05-06T18:07:52.620Z,8.93
2023-05-06T18:10:20.036Z,17.58
2023-05-06T18:12:48.032Z,10.68
2023-05-06T18:15:15.538Z,9.80
2023-05-06T18:17:42.962Z,9.00
2023-05-06T18:20:10.844Z,8.48
2023-05-06T18:22:38.945Z,11.57
2023-05-06T18:25:07.069Z,9.82
2023-05-06T18:27:34.495Z,7.60
2023-05-06T18:30:01.929Z,6.47
2023-05-06T18:32:29.457Z,6.75
2023-05-06T18:34:57.142Z,10.45
2023-05-06T18:37:24.555Z,6.78
2023-05-06T18:39:51.827Z,5.03
2023-05-06T18:42:19.132Z,11.18
2023-05-06T18:44:46.499Z,9.32
2023-05-06T18:47:13.858Z,6.97
2023-05-06T18:49:41.198Z,6.63
2023-05-06T18:52:09.567Z,5.13
2023-05-06T18:54:36.891Z,6.25
2023-05-06T18:57:04.587Z,12.32
2023-05-06T18:59:31.970Z,17.73
2023-05-06T19:02:01.951Z,12.75
2023-05-06T19:04:31.317Z,10.05
2023-05-06T19:06:58.644Z,11.73
2023-05-06T19:09:26.224Z,10.32
2023-05-06T19:11:54.395Z,7.28
2023-05-06T19:14:23.656Z,15.52
2023-05-06T19:16:52.739Z,9.48
2023-05-06T19:19:20.235Z,11.02
2023-05-06T19:21:47.574Z,10.82
2023-05-06T19:24:14.878Z,10.35
2023-05-06T19:26:42.277Z,7.13
2023-05-06T19:29:09.979Z,12.25
2023-05-06T19:31:38.090Z,8.13
2023-05-06T19:34:05.898Z,9.30
2023-05-06T19:36:33.127Z,7.70
2023-05-06T19:39:00.798Z,11.85
2023-05-06T19:41:28.685Z,13.73
2023-05-06T19:43:56.796Z,16.23
2023-05-06T19:46:24.155Z,13.73
2023-05-06T19:48:52.128Z,12.68
2023-05-06T19:51:19.761Z,13.75
2023-05-06T19:53:48.949Z,11.15
2023-05-06T19:56:17.397Z,16.10
2023-05-06T19:58:45.601Z,17.00
2023-05-06T20:01:13.079Z,15.25
2023-05-06T20:03:41.034Z,14.23
2023-05-06T20:06:08.802Z,13.45
2023-05-06T20:08:36.520Z,18.00
2023-05-06T20:11:03.831Z,10.10
2023-05-06T20:13:31.677Z,20.65
2023-05-06T20:16:00.254Z,12.27
2023-05-06T20:18:28.155Z,17.52
2023-05-06T20:20:56.289Z,18.05
2023-05-06T20:23:23.944Z,20.35
2023-05-06T20:25:51.937Z,23.75
2023-05-06T20:28:19.213Z,17.90
2023-05-06T20:30:48.250Z,21.17
2023-05-06T20:33:15.796Z,20.02
2023-05-06T20:35:43.276Z,17.75
2023-05-06T20:38:11.354Z,28.58
2023-05-06T20:40:38.720Z,17.20
2023-05-06T20:43:06.109Z,16.88
2023-05-06T20:45:33.573Z,15.57
2023-05-06T20:48:01.040Z,17.13
2023-05-06T20:50:29.926Z,18.90
2023-05-06T20:52:57.704Z,13.25
2023-05-06T20:55:25.856Z,17.48
2023-05-06T20:57:53.396Z,17.48
2023-05-06T21:00:21.585Z,15.38
2023-05-06T21:02:49.384Z,17.73
2023-05-06T21:05:17.570Z,16.02
2023-05-06T21:07:45.646Z,14.77
2023-05-06T21:10:14.509Z,14.88
2023-05-06T21:12:50.014Z,15.85
2023-05-06T21:15:17.566Z,25.73
2023-05-06T21:17:45.204Z,24.83
2023-05-06T21:20:13.200Z,27.50
2023-05-06T21:22:40.616Z,21.27
2023-05-06T21:25:09.090Z,26.58
2023-05-06T21:27:36.910Z,22.95
2023-05-06T21:30:04.673Z,26.05
2023-05-06T21:32:33.349Z,22.10
2023-05-06T21:35:02.627Z,21.17
2023-05-06T21:37:30.662Z,20.00
2023-05-06T21:39:57.983Z,19.38
2023-05-06T21:42:25.378Z,22.23
2023-05-06T21:44:52.756Z,21.83
2023-05-06T21:47:20.199Z,26.35
2023-05-06T21:49:48.474Z,20.83
2023-05-06T21:52:15.811Z,27.90
2023-05-06T21:54:46.444Z,25.50
2023-05-06T21:57:14.042Z,28.40
2023-05-06T21:59:41.809Z,23.65
2023-05-06T22:02:09.491Z,29.38
2023-05-06T22:04:37.477Z,25.15
2023-05-06T22:07:04.899Z,25.63
2023-05-06T22:09:32.185Z,25.33
2023-05-06T22:11:59.757Z,31.10
2023-05-06T22:14:37.402Z,27.25
2023-05-06T22:17:08.026Z,24.63
2023-05-06T22:19:35.951Z,26.42
2023-05-06T22:22:04.218Z,29.80
2023-05-06T22:24:31.632Z,29.42
2023-05-06T22:26:59.002Z,30.20
2023-05-06T22:29:26.734Z,31.38
2023-05-06T22:31:54.221Z,33.03
2023-05-06T22:34:21.707Z,30.00
2023-05-06T22:36:49.497Z,30.63
2023-05-06T22:39:16.832Z,28.85
2023-05-06T22:41:45.519Z,39.00
2023-05-06T22:44:13.760Z,32.28
2023-05-06T22:46:41.482Z,30.92
2023-05-06T22:49:08.816Z,33.67
2023-05-06T22:51:36.740Z,31.52
2023-05-06T22:54:04.844Z,36.17
2023-05-06T22:56:32.186Z,32.97
2023-05-06T22:58:59.485Z,34.30
2023-05-06T23:01:32.016Z,36.78
2023-05-06T23:03:59.836Z,39.08
2023-05-06T23:06:28.448Z,37.08
2023-05-06T23:08:55.707Z,30.42
2023-05-06T23:11:23.219Z,35.80
2023-05-06T23:13:50.807Z,33.08
2023-05-06T23:16:18.447Z,34.85
2023-05-06T23:18:46.156Z,37.47
2023-05-06T23:21:13.586Z,37.58
2023-05-06T23:23:41.031Z,40.05
2023-05-06T23:26:08.930Z,36.80
2023-05-06T23:28:36.542Z,35.95
2023-05-06T23:31:03.829Z,34.53
2023-05-06T23:33:31.221Z,38.80
2023-05-06T23:36:02.505Z,38.45
2023-05-06T23:38:30.180Z,35.45
2023-05-06T23:40:57.915Z,40.58
2023-05-06T23:43:25.821Z,36.92
2023-05-06T23:45:53.719Z,34.65
2023-05-06T23:48:21.454Z,38.17
2023-05-06T23:50:48.881Z,35.88
2023-05-06T23:53:16.937Z,38.55
2023-05-06T23:55:44.360Z,33.35
2023-05-06T23:58:11.686Z,35.67
